createdAt,value
2019-03-25T00:02:10.338Z,50.53
2019-03-25T00:04:43.694Z,50.61
2019-03-25T00:07:17.246Z,50.69
2019-03-25T00:09:50.690Z,50.69
2019-03-25T00:12:24.164Z,50.83
2019-03-25T00:14:57.763Z,50.76
2019-03-25T00:17:31.363Z,50.87
2019-03-25T00:20:06.048Z,50.87
2019-03-25T00:22:39.452Z,51.21
2019-03-25T00:25:12.969Z,51.29
2019-03-25T00:27:46.305Z,51.34
2019-03-25T00:30:20.652Z,51.59
2019-03-25T00:32:54.112Z,51.38
2019-03-25T00:35:27.644Z,51.46
2019-03-25T00:38:01.257Z,51.65
2019-03-25T00:40:35.045Z,51.44
2019-03-25T00:43:08.546Z,51.38
2019-03-25T00:45:41.977Z,51.57
2019-03-25T00:48:15.462Z,51.57
2019-03-25T00:50:49.247Z,51.46
2019-03-25T00:53:22.603Z,51.37
2019-03-25T00:55:56.117Z,51.29
2019-03-25T00:58:29.474Z,51.29
2019-03-25T01:01:03.007Z,51.21
2019-03-25T01:03:36.483Z,51.00
2019-03-25T01:06:10.092Z,51.07
2019-03-25T01:08:43.517Z,51.17
2019-03-25T01:11:17.009Z,51.37
2019-03-25T01:13:50.563Z,51.13
2019-03-25T01:16:23.946Z,51.76
2019-03-25T01:18:57.430Z,51.76
2019-03-25T01:21:31.113Z,51.27
2019-03-25T01:24:05.686Z,51.22
2019-03-25T01:26:39.156Z,51.35
2019-03-25T01:29:12.596Z,51.24
2019-03-25T01:31:46.094Z,51.64
2019-03-25T01:34:19.498Z,51.24
2019-03-25T01:36:53.005Z,51.24
2019-03-25T01:39:26.360Z,51.13
2019-03-25T01:41:59.982Z,51.13
2019-03-25T01:44:33.382Z,50.97
2019-03-25T01:47:06.831Z,51.01
2019-03-25T01:49:40.197Z,50.78
2019-03-25T01:52:13.748Z,50.88
2019-03-25T01:54:47.301Z,51.26
2019-03-25T01:57:20.762Z,50.91
2019-03-25T01:59:54.233Z,51.08
2019-03-25T02:02:27.634Z,51.05
2019-03-25T02:05:01.146Z,51.01
2019-03-25T02:07:34.485Z,51.03
2019-03-25T02:10:08.220Z,50.92
2019-03-25T02:12:41.726Z,51.32
2019-03-25T02:15:15.226Z,52.12
2019-03-25T02:17:48.635Z,52.60
2019-03-25T02:20:26.741Z,53.13
2019-03-25T02:22:57.437Z,53.54
2019-03-25T02:25:31.050Z,54.22
2019-03-25T02:28:04.496Z,54.59
2019-03-25T02:30:37.872Z,55.31
2019-03-25T02:33:11.389Z,54.87
2019-03-25T02:35:45.129Z,55.08
2019-03-25T02:38:18.696Z,54.59
2019-03-25T02:40:52.113Z,54.86
2019-03-25T02:43:25.449Z,54.90
2019-03-25T02:45:58.838Z,55.02
2019-03-25T02:48:32.178Z,54.64
2019-03-25T02:51:05.670Z,54.66
2019-03-25T02:53:39.100Z,54.58
2019-03-25T02:56:12.633Z,54.72
2019-03-25T02:58:46.009Z,55.73
2019-03-25T03:01:19.524Z,55.73
2019-03-25T03:03:52.947Z,55.88
2019-03-25T03:06:26.482Z,56.23
2019-03-25T03:08:59.885Z,57.23
2019-03-25T03:11:33.499Z,57.56
2019-03-25T03:14:09.990Z,57.82
2019-03-25T03:16:43.426Z,58.13
2019-03-25T03:19:16.846Z,59.11
2019-03-25T03:21:50.442Z,58.37
2019-03-25T03:24:23.831Z,59.40
2019-03-25T03:26:57.256Z,58.90
2019-03-25T03:29:30.925Z,58.79
2019-03-25T03:32:04.346Z,58.71
2019-03-25T03:34:37.806Z,59.10
2019-03-25T03:37:11.251Z,58.59
2019-03-25T03:39:44.593Z,58.76
2019-03-25T03:42:18.041Z,59.23
2019-03-25T03:44:51.382Z,59.47
2019-03-25T03:47:24.817Z,59.36
2019-03-25T03:49:58.139Z,59.42
2019-03-25T03:52:31.594Z,59.22
2019-03-25T03:55:06.112Z,59.23
2019-03-25T03:57:39.546Z,59.38
2019-03-25T04:00:16.061Z,59.54
2019-03-25T04:02:49.422Z,59.73
2019-03-25T04:05:22.891Z,59.57
2019-03-25T04:07:56.304Z,59.64
2019-03-25T04:10:29.746Z,59.79
2019-03-25T04:13:03.212Z,60.06
2019-03-25T04:15:36.610Z,60.52
2019-03-25T04:18:09.996Z,60.30
2019-03-25T04:20:43.429Z,60.38
2019-03-25T04:23:16.856Z,60.44
2019-03-25T04:25:50.446Z,60.43
2019-03-25T04:28:23.786Z,60.55
2019-03-25T04:30:57.239Z,60.55
2019-03-25T04:33:30.716Z,60.67
2019-03-25T04:36:04.342Z,60.84
2019-03-25T04:38:37.842Z,61.03
2019-03-25T04:41:11.265Z,61.08
2019-03-25T04:43:44.722Z,61.28
2019-03-25T04:46:18.166Z,61.28
2019-03-25T04:48:51.564Z,61.50
2019-03-25T04:51:25.022Z,61.77
2019-03-25T04:53:58.456Z,61.98
2019-03-25T04:56:39.717Z,62.02
2019-03-25T04:59:07.202Z,61.98
2019-03-25T05:01:40.638Z,62.00
2019-03-25T05:04:13.980Z,62.06
2019-03-25T05:06:47.356Z,62.18
2019-03-25T05:09:20.728Z,62.25
2019-03-25T05:11:54.245Z,62.29
2019-03-25T05:14:27.632Z,62.33
2019-03-25T05:17:01.141Z,62.29
2019-03-25T05:19:34.472Z,62.58
2019-03-25T05:22:07.931Z,62.75
2019-03-25T05:24:41.584Z,62.68
2019-03-25T05:27:15.617Z,62.89
2019-03-25T05:29:49.011Z,62.88
2019-03-25T05:32:22.480Z,63.09
2019-03-25T05:34:55.876Z,62.98
2019-03-25T05:37:29.363Z,63.28
2019-03-25T05:40:02.799Z,63.04
2019-03-25T05:42:36.157Z,63.34
2019-03-25T05:45:09.630Z,63.45
2019-03-25T05:47:43.137Z,63.43
2019-03-25T05:50:16.556Z,63.55
2019-03-25T05:52:50.087Z,63.62
2019-03-25T05:55:23.430Z,63.41
2019-03-25T05:57:56.810Z,63.41
2019-03-25T06:00:31.935Z,63.45
2019-03-25T06:03:05.386Z,63.35
2019-03-25T06:05:38.788Z,63.46
2019-03-25T06:08:12.201Z,63.76
2019-03-25T06:10:45.957Z,63.70
2019-03-25T06:13:19.654Z,63.43
2019-03-25T06:15:53.061Z,63.36
2019-03-25T06:18:26.494Z,63.21
2019-03-25T06:20:59.837Z,63.53
2019-03-25T06:23:33.192Z,63.21
2019-03-25T06:26:06.591Z,63.12
2019-03-25T06:28:40.016Z,63.50
2019-03-25T06:31:13.366Z,63.37
2019-03-25T06:33:46.734Z,63.15
2019-03-25T06:36:20.069Z,63.04
2019-03-25T06:38:53.523Z,63.16
2019-03-25T06:41:26.938Z,63.28
2019-03-25T06:44:00.306Z,63.31
2019-03-25T06:46:33.624Z,63.24
2019-03-25T06:49:06.983Z,63.22
2019-03-25T06:51:40.333Z,63.13
2019-03-25T06:54:13.696Z,63.37
2019-03-25T06:56:47.052Z,62.94
2019-03-25T06:59:20.444Z,62.65
2019-03-25T07:01:53.901Z,62.42
2019-03-25T07:04:27.500Z,62.42
2019-03-25T07:07:00.996Z,62.47
2019-03-25T07:09:34.319Z,62.37
2019-03-25T07:12:07.703Z,62.37
2019-03-25T07:14:41.360Z,62.67
2019-03-25T07:17:14.711Z,61.69
2019-03-25T07:19:48.129Z,61.75
2019-03-25T07:22:21.746Z,61.85
2019-03-25T07:24:55.155Z,61.61
2019-03-25T07:27:36.743Z,61.28
2019-03-25T07:30:05.583Z,61.06
2019-03-25T07:32:39.029Z,61.49
2019-03-25T07:35:12.861Z,61.68
2019-03-25T07:37:46.317Z,61.64
2019-03-25T07:40:19.759Z,61.66
2019-03-25T07:42:53.095Z,62.26
2019-03-25T07:45:26.529Z,62.36
2019-03-25T07:47:59.866Z,62.26
2019-03-25T07:50:33.409Z,62.73
2019-03-25T07:53:06.742Z,62.55
2019-03-25T07:55:40.134Z,61.74
2019-03-25T07:58:13.533Z,62.18
2019-03-25T08:00:46.948Z,62.15
2019-03-25T08:03:20.365Z,62.02
2019-03-25T08:05:53.803Z,62.02
2019-03-25T08:08:27.257Z,62.21
2019-03-25T08:11:00.754Z,62.31
2019-03-25T08:13:34.108Z,62.31
2019-03-25T08:16:07.604Z,62.04
2019-03-25T08:18:40.959Z,62.11
2019-03-25T08:21:14.423Z,62.06
2019-03-25T08:23:47.942Z,62.21
2019-03-25T08:26:21.377Z,62.27
2019-03-25T08:28:54.742Z,61.58
2019-03-25T08:31:28.170Z,61.84
2019-03-25T08:34:01.546Z,61.71
2019-03-25T08:36:34.952Z,61.75
2019-03-25T08:39:08.522Z,61.75
2019-03-25T08:41:41.930Z,61.51
2019-03-25T08:44:15.382Z,61.29
2019-03-25T08:46:48.755Z,61.09
2019-03-25T08:49:22.091Z,60.45
2019-03-25T08:51:55.593Z,60.70
2019-03-25T08:54:28.925Z,60.36
2019-03-25T08:57:02.375Z,60.35
2019-03-25T08:59:35.882Z,61.04
2019-03-25T09:02:09.359Z,61.08
2019-03-25T09:04:42.806Z,61.22
2019-03-25T09:07:16.242Z,61.10
2019-03-25T09:09:49.721Z,61.06
2019-03-25T09:12:23.185Z,60.42
2019-03-25T09:14:56.634Z,61.45
2019-03-25T09:17:30.141Z,61.35
2019-03-25T09:20:05.472Z,61.34
2019-03-25T09:22:38.961Z,61.33
2019-03-25T09:25:12.587Z,61.44
2019-03-25T09:27:45.954Z,61.32
2019-03-25T09:30:56.765Z,61.32
2019-03-25T09:33:30.138Z,61.35
2019-03-25T09:36:03.617Z,61.15
2019-03-25T09:38:37.079Z,61.57
2019-03-25T09:41:10.563Z,61.29
2019-03-25T09:43:44.073Z,61.60
2019-03-25T09:46:17.636Z,61.92
2019-03-25T09:48:51.073Z,62.11
2019-03-25T09:51:24.650Z,61.03
2019-03-25T09:53:57.977Z,61.56
2019-03-25T09:56:31.510Z,60.84
2019-03-25T09:59:05.144Z,60.56
2019-03-25T10:01:38.642Z,60.20
2019-03-25T10:04:12.052Z,59.96
2019-03-25T10:06:45.511Z,59.62
2019-03-25T10:09:18.932Z,59.86
2019-03-25T10:11:52.365Z,59.23
2019-03-25T10:14:25.827Z,59.51
2019-03-25T10:16:59.183Z,60.03
2019-03-25T10:19:32.600Z,60.06
2019-03-25T10:22:06.094Z,60.17
2019-03-25T10:24:39.486Z,60.38
2019-03-25T10:27:12.982Z,60.64
2019-03-25T10:29:46.541Z,60.49
2019-03-25T10:32:19.910Z,60.56
2019-03-25T10:34:53.254Z,60.61
2019-03-25T10:37:26.868Z,60.73
2019-03-25T10:40:00.410Z,61.10
2019-03-25T10:42:33.925Z,61.49
2019-03-25T10:45:07.789Z,61.02
2019-03-25T10:47:41.230Z,61.26
2019-03-25T10:50:14.701Z,61.48
2019-03-25T10:52:48.252Z,61.91
2019-03-25T10:55:21.670Z,61.94
2019-03-25T10:57:55.129Z,62.58
2019-03-25T11:00:28.704Z,62.56
2019-03-25T11:03:02.196Z,62.86
2019-03-25T11:05:35.613Z,62.86
2019-03-25T11:08:09.154Z,62.71
2019-03-25T11:10:42.553Z,62.28
2019-03-25T11:13:16.010Z,61.86
2019-03-25T11:15:49.512Z,61.87
2019-03-25T11:18:22.885Z,61.56
2019-03-25T11:20:56.212Z,61.71
2019-03-25T11:23:29.674Z,60.19
2019-03-25T11:26:03.003Z,61.35
2019-03-25T11:28:36.370Z,56.61
2019-03-25T11:31:09.858Z,56.98
2019-03-25T11:33:43.480Z,56.92
2019-03-25T11:36:16.898Z,57.58
2019-03-25T11:38:50.457Z,57.35
2019-03-25T11:41:23.925Z,57.85
2019-03-25T11:43:57.535Z,56.78
2019-03-25T11:46:31.021Z,57.32
2019-03-25T11:49:04.568Z,57.72
2019-03-25T11:51:37.908Z,56.58
2019-03-25T11:54:11.413Z,56.79
2019-03-25T11:56:44.932Z,55.22
2019-03-25T11:59:19.058Z,56.20
2019-03-25T12:01:52.587Z,54.63
2019-03-25T12:04:26.123Z,53.19
2019-03-25T12:06:59.475Z,48.63
2019-03-25T12:09:33.027Z,100.00
2019-03-25T12:12:06.629Z,41.76
2019-03-25T12:14:40.015Z,43.17
2019-03-25T12:17:13.631Z,44.39
2019-03-25T12:19:47.025Z,46.27
2019-03-25T12:22:20.466Z,46.27
2019-03-25T12:24:53.970Z,47.90
2019-03-25T12:27:27.497Z,47.72
2019-03-25T12:30:00.973Z,47.64
2019-03-25T12:32:34.422Z,48.63
2019-03-25T12:35:08.072Z,49.02
2019-03-25T12:37:41.645Z,50.34
2019-03-25T12:40:15.142Z,50.45
2019-03-25T12:42:48.702Z,50.17
2019-03-25T12:45:22.193Z,50.17
2019-03-25T12:47:55.587Z,53.30
2019-03-25T12:50:28.933Z,54.56
2019-03-25T12:53:02.377Z,54.93
2019-03-25T12:55:35.929Z,55.57
2019-03-25T12:58:09.326Z,54.93
2019-03-25T13:00:44.799Z,53.80
2019-03-25T13:03:18.422Z,54.85
2019-03-25T13:05:51.823Z,54.45
2019-03-25T13:08:33.071Z,52.18
2019-03-25T13:11:00.394Z,48.70
2019-03-25T13:13:33.870Z,49.21
2019-03-25T13:16:07.361Z,49.90
2019-03-25T13:18:40.782Z,47.14
2019-03-25T13:21:14.296Z,45.51
2019-03-25T13:23:47.721Z,43.21
2019-03-25T13:26:21.107Z,46.09
2019-03-25T13:29:02.013Z,46.01
2019-03-25T13:31:29.771Z,46.92
2019-03-25T13:34:03.228Z,48.04
2019-03-25T13:36:36.670Z,47.95
2019-03-25T13:39:10.040Z,48.83
2019-03-25T13:41:43.498Z,49.12
2019-03-25T13:44:16.868Z,49.88
2019-03-25T13:46:50.414Z,50.65
2019-03-25T13:49:23.776Z,50.65
2019-03-25T13:51:57.200Z,50.85
2019-03-25T13:54:30.594Z,51.20
2019-03-25T13:57:04.084Z,49.93
2019-03-25T13:59:37.500Z,51.29
2019-03-25T14:02:11.064Z,51.62
2019-03-25T14:04:44.630Z,50.91
2019-03-25T14:07:18.104Z,50.65
2019-03-25T14:09:51.421Z,49.83
2019-03-25T14:12:24.896Z,50.24
2019-03-25T14:14:58.300Z,49.50
2019-03-25T14:17:31.709Z,49.72
2019-03-25T14:20:07.520Z,49.32
2019-03-25T14:22:40.963Z,50.08
2019-03-25T14:25:14.529Z,49.90
2019-03-25T14:27:48.012Z,49.67
2019-03-25T14:30:21.680Z,49.61
2019-03-25T14:32:55.052Z,49.16
2019-03-25T14:35:28.557Z,49.37
2019-03-25T14:38:01.941Z,49.08
2019-03-25T14:40:35.315Z,50.18
2019-03-25T14:43:08.747Z,49.44
2019-03-25T14:45:42.185Z,49.06
2019-03-25T14:48:15.842Z,48.47
2019-03-25T14:50:49.229Z,49.56
2019-03-25T14:53:22.541Z,49.42
2019-03-25T14:55:55.979Z,48.79
2019-03-25T14:58:29.319Z,48.33
2019-03-25T15:01:02.721Z,48.45
2019-03-25T15:03:36.022Z,49.07
2019-03-25T15:06:09.602Z,49.28
2019-03-25T15:08:43.109Z,48.82
2019-03-25T15:11:16.483Z,48.78
2019-03-25T15:13:49.915Z,48.38
2019-03-25T15:16:23.277Z,47.78
2019-03-25T15:18:56.604Z,49.00
2019-03-25T15:21:30.068Z,48.74
2019-03-25T15:24:03.535Z,48.99
2019-03-25T15:26:36.913Z,49.45
2019-03-25T15:29:10.326Z,49.60
2019-03-25T15:31:43.707Z,49.77
2019-03-25T15:34:17.052Z,49.79
2019-03-25T15:36:50.584Z,50.48
2019-03-25T15:39:24.193Z,50.43
2019-03-25T15:41:57.613Z,50.72
2019-03-25T15:44:31.379Z,50.71
2019-03-25T15:47:05.206Z,51.42
2019-03-25T15:49:38.703Z,51.68
2019-03-25T15:52:12.122Z,51.98
2019-03-25T15:54:45.539Z,52.10
2019-03-25T15:57:18.877Z,52.69
2019-03-25T15:59:52.335Z,52.57
2019-03-25T16:02:25.747Z,52.51
2019-03-25T16:04:59.204Z,52.44
2019-03-25T16:07:33.030Z,52.60
2019-03-25T16:10:07.476Z,52.53
2019-03-25T16:12:40.847Z,52.46
2019-03-25T16:15:16.612Z,52.56
2019-03-25T16:17:50.371Z,52.55
2019-03-25T16:20:23.779Z,52.54
2019-03-25T16:22:57.183Z,52.58
2019-03-25T16:25:30.733Z,52.42
2019-03-25T16:28:04.203Z,52.45
2019-03-25T16:30:37.698Z,52.26
2019-03-25T16:33:11.098Z,52.46
2019-03-25T16:35:44.973Z,52.22
2019-03-25T16:38:18.355Z,52.81
2019-03-25T16:40:51.796Z,53.12
2019-03-25T16:43:25.207Z,53.55
2019-03-25T16:45:58.685Z,53.86
2019-03-25T16:48:32.073Z,53.87
2019-03-25T16:51:05.439Z,53.70
2019-03-25T16:53:38.773Z,53.89
2019-03-25T16:56:12.328Z,54.12
2019-03-25T16:58:45.707Z,54.21
2019-03-25T17:01:19.114Z,54.24
2019-03-25T17:03:52.494Z,54.05
2019-03-25T17:06:25.950Z,53.81
2019-03-25T17:08:59.390Z,54.22
2019-03-25T17:11:32.789Z,54.17
2019-03-25T17:14:09.254Z,54.05
2019-03-25T17:16:42.698Z,53.96
2019-03-25T17:19:16.115Z,54.07
2019-03-25T17:21:57.662Z,54.02
2019-03-25T17:24:24.883Z,54.14
2019-03-25T17:26:58.322Z,54.19
2019-03-25T17:29:31.903Z,54.00
2019-03-25T17:32:05.475Z,53.92
2019-03-25T17:34:39.076Z,54.00
2019-03-25T17:37:13.055Z,53.75
2019-03-25T17:39:46.431Z,53.72
2019-03-25T17:42:19.986Z,53.62
2019-03-25T17:44:53.568Z,53.59
2019-03-25T17:47:27.011Z,53.70
2019-03-25T17:50:00.490Z,53.70
2019-03-25T17:52:33.975Z,53.60
2019-03-25T17:55:08.058Z,53.80
2019-03-25T17:57:41.510Z,53.79
2019-03-25T18:00:18.170Z,53.93
2019-03-25T18:02:51.521Z,53.79
2019-03-25T18:05:25.335Z,53.98
2019-03-25T18:07:59.530Z,53.78
2019-03-25T18:10:33.081Z,53.83
2019-03-25T18:13:06.549Z,53.86
2019-03-25T18:15:39.940Z,54.01
2019-03-25T18:18:13.374Z,54.08
2019-03-25T18:20:46.910Z,54.04
2019-03-25T18:23:20.408Z,53.83
2019-03-25T18:25:53.751Z,53.84
2019-03-25T18:28:27.158Z,53.79
2019-03-25T18:31:00.596Z,53.88
2019-03-25T18:33:34.036Z,53.71
2019-03-25T18:36:07.444Z,53.34
2019-03-25T18:38:40.810Z,53.26
2019-03-25T18:41:14.238Z,52.94
2019-03-25T18:43:47.679Z,52.78
2019-03-25T18:46:21.076Z,52.08
2019-03-25T18:48:54.654Z,51.75
2019-03-25T18:51:28.014Z,51.75
2019-03-25T18:54:01.532Z,51.26
2019-03-25T18:56:34.933Z,50.75
2019-03-25T18:59:10.438Z,50.97
2019-03-25T19:01:53.867Z,50.49
2019-03-25T19:04:18.797Z,50.62
2019-03-25T19:06:52.122Z,50.86
2019-03-25T19:09:26.352Z,50.26
2019-03-25T19:12:01.627Z,50.29
2019-03-25T19:14:35.277Z,50.38
2019-03-25T19:17:09.157Z,50.39
2019-03-25T19:19:44.478Z,50.67
2019-03-25T19:22:18.392Z,50.55
2019-03-25T19:24:52.003Z,50.66
2019-03-25T19:27:25.741Z,50.58
2019-03-25T19:29:59.176Z,51.10
2019-03-25T19:32:32.572Z,51.63
2019-03-25T19:35:09.387Z,51.56
2019-03-25T19:37:42.913Z,51.61
2019-03-25T19:40:16.343Z,51.60
2019-03-25T19:42:49.660Z,51.56
2019-03-25T19:45:23.168Z,51.57
2019-03-25T19:47:56.708Z,51.70
2019-03-25T19:50:30.084Z,52.02
2019-03-25T19:53:03.598Z,52.01
2019-03-25T19:55:37.082Z,52.12
2019-03-25T19:58:10.491Z,52.16
2019-03-25T20:00:44.168Z,52.41
2019-03-25T20:03:17.742Z,52.37
2019-03-25T20:05:51.125Z,52.43
2019-03-25T20:08:24.511Z,52.29
2019-03-25T20:10:57.950Z,52.56
2019-03-25T20:13:31.406Z,52.27
2019-03-25T20:16:04.855Z,52.28
2019-03-25T20:18:38.331Z,52.34
2019-03-25T20:21:11.815Z,52.46
2019-03-25T20:23:45.280Z,52.46
2019-03-25T20:26:18.755Z,52.69
2019-03-25T20:28:54.460Z,52.63
2019-03-25T20:31:28.601Z,52.75
2019-03-25T20:34:11.043Z,52.93
2019-03-25T20:36:37.594Z,52.91
2019-03-25T20:39:11.438Z,53.15
2019-03-25T20:41:46.398Z,53.24
2019-03-25T20:44:20.909Z,53.08
2019-03-25T20:46:55.073Z,52.98
2019-03-25T20:49:28.466Z,52.94
2019-03-25T20:52:01.948Z,53.11
2019-03-25T20:54:35.528Z,52.99
2019-03-25T20:57:09.059Z,53.09
2019-03-25T20:59:42.586Z,53.24
2019-03-25T21:02:15.953Z,53.47
2019-03-25T21:04:49.492Z,53.48
2019-03-25T21:07:22.948Z,53.48
2019-03-25T21:09:56.357Z,53.33
2019-03-25T21:12:29.944Z,53.60
2019-03-25T21:15:04.735Z,53.90
2019-03-25T21:17:38.139Z,54.16
2019-03-25T21:20:11.897Z,54.18
2019-03-25T21:22:45.589Z,54.21
2019-03-25T21:25:19.136Z,54.54
2019-03-25T21:27:52.539Z,54.54
2019-03-25T21:30:28.267Z,54.67
2019-03-25T21:33:01.195Z,54.86
2019-03-25T21:35:34.674Z,54.99
2019-03-25T21:38:08.064Z,54.93
2019-03-25T21:40:41.497Z,54.99
2019-03-25T21:43:14.983Z,54.82
2019-03-25T21:45:48.591Z,54.88
2019-03-25T21:48:22.028Z,54.82
2019-03-25T21:50:55.520Z,54.89
2019-03-25T21:53:28.939Z,54.86
2019-03-25T21:56:02.484Z,54.90
2019-03-25T21:58:35.901Z,54.91
2019-03-25T22:01:09.390Z,55.02
2019-03-25T22:03:42.748Z,55.12
2019-03-25T22:06:16.129Z,55.19
2019-03-25T22:08:49.462Z,55.23
2019-03-25T22:11:22.925Z,55.28
2019-03-25T22:13:56.324Z,55.30
2019-03-25T22:16:29.863Z,55.32
2019-03-25T22:19:03.320Z,55.22
2019-03-25T22:21:36.838Z,55.30
2019-03-25T22:24:10.252Z,55.37
2019-03-25T22:26:43.777Z,55.41
2019-03-25T22:31:47.957Z,55.61
2019-03-25T22:34:21.378Z,55.69
2019-03-25T22:36:55.003Z,55.74
2019-03-25T22:39:28.422Z,55.73
2019-03-25T22:42:01.871Z,56.00
2019-03-25T22:44:35.313Z,100.00
2019-03-25T22:47:08.751Z,56.33
2019-03-25T22:49:42.193Z,56.56
2019-03-25T22:52:15.625Z,56.78
2019-03-25T22:54:49.032Z,57.02
2019-03-25T22:57:22.553Z,57.07
2019-03-25T22:59:55.884Z,57.24
2019-03-25T23:02:29.421Z,57.43
2019-03-25T23:05:02.906Z,57.41
2019-03-25T23:07:36.268Z,57.39
2019-03-25T23:10:09.607Z,57.45
2019-03-25T23:12:43.066Z,57.46
2019-03-25T23:15:16.474Z,57.47
2019-03-25T23:17:49.913Z,57.70
2019-03-25T23:20:23.235Z,57.74
2019-03-25T23:22:56.612Z,57.65
2019-03-25T23:25:29.927Z,57.69
2019-03-25T23:28:03.359Z,57.89
2019-03-25T23:30:36.696Z,58.01
2019-03-25T23:33:10.122Z,58.13
2019-03-25T23:35:43.453Z,57.97
2019-03-25T23:38:16.814Z,58.12
2019-03-25T23:40:50.246Z,58.13
2019-03-25T23:43:23.704Z,58.09
2019-03-25T23:45:57.102Z,58.14
2019-03-25T23:48:30.556Z,58.15
2019-03-25T23:51:04.075Z,58.13
2019-03-25T23:53:37.520Z,58.11
2019-03-25T23:56:10.884Z,58.21
2019-03-25T23:58:44.414Z,58.49
